Aérodrome :
LOGIN :

S'inscrire | Disclaimer

   EN    FR    IT 

 










Légende :    VFR   VFR Marginal   IFR   IFR Intensif   IFR Très Intensif
Visi : 
Plafond : 
>= 8 km
>= 3000ft
5 à 8 km
1000 à 3000 ft
1500m à 5 km
500 à 1000 ft
800 à 1500m
200 à 500 ft
< 800m
< 200 ft
Symboles :   Orages  Brouillard  Fortes neiges  Fortes précipitations  Vent > 20 kt
SIGMETs :   Divers  Orages  Givrage  Turbulence  Onde Orograph.  Cendres Volcan.






- Altitude de l'aérodrome : 364 ft


LFAQ - Albert Bray

DERNIER METAR :
  • 231500Z AUTO 11007KT 9999 OVC012 03/01 Q1034 NOSIG

METARs EXPIRÉS :
  • 231430Z AUTO 12004KT 9999 OVC012 03/02 Q1034 BECMG OVC017
  • 231400Z AUTO 12007KT 9999 OVC013 03/01 Q1034 BECMG OVC017
  • 231330Z AUTO 11007KT 090V150 9000 OVC012 03/01 Q1035 BECMG OVC017
  • 231300Z AUTO 14006KT 9000 OVC012 04/02 Q1035 BECMG OVC017
  • 231230Z AUTO 14007KT 8000 OVC012 04/02 Q1035 BECMG OVC017

TAF TAF LFAQ
Valide du 23 à 15h jusqu'au 24 à 00h UTC


231400Z 2315/2324 12005KT 9999 OVC012
TEMPO 2317/2324 OVC017



MET'MAP, la Météo Aéronautique d'un coup d'oeil ! - Copyright ORBIFLY Décembre 2007 - Disclaimer

ORBIFLY MET'MAP TEAM :

Programmation & Développement : Alexandra Zaïnal
Sur une idée originale de : Baudouin d'Aumeries
Assistance à la programmation : Marc-Olivier Méhu
Soutien technique & logistique : Manuel Goepfert

Contact : metmap@orbifly.com




SOURCES & CREDITS :

   NOAA